sensor_id;sensor_type;location;lat;lon;timestamp;P1;durP1;ratioP1;P2;durP2;ratioP2
16512;SDS011;8369;48.030;11.598;2023-07-09T00:00:50;7.35;;;5.50;;
16512;SDS011;8369;48.030;11.598;2023-07-09T00:03:17;7.35;;;4.95;;
16512;SDS011;8369;48.030;11.598;2023-07-09T00:05:45;8.98;;;6.40;;
16512;SDS011;8369;48.030;11.598;2023-07-09T00:08:28;14.23;;;5.60;;
16512;SDS011;8369;48.030;11.598;2023-07-09T00:10:55;7.57;;;5.40;;
16512;SDS011;8369;48.030;11.598;2023-07-09T00:13:25;7.57;;;6.10;;
16512;SDS011;8369;48.030;11.598;2023-07-09T00:15:55;8.50;;;5.57;;
16512;SDS011;8369;48.030;11.598;2023-07-09T00:18:24;6.85;;;4.90;;
16512;SDS011;8369;48.030;11.598;2023-07-09T00:20:51;8.27;;;5.65;;
16512;SDS011;8369;48.030;11.598;2023-07-09T00:23:17;8.25;;;5.60;;
16512;SDS011;8369;48.030;11.598;2023-07-09T00:25:45;7.97;;;5.65;;
16512;SDS011;8369;48.030;11.598;2023-07-09T00:28:18;7.65;;;5.88;;
16512;SDS011;8369;48.030;11.598;2023-07-09T00:30:45;7.95;;;4.72;;
16512;SDS011;8369;48.030;11.598;2023-07-09T00:33:11;6.80;;;4.40;;
16512;SDS011;8369;48.030;11.598;2023-07-09T00:35:43;6.82;;;5.35;;
16512;SDS011;8369;48.030;11.598;2023-07-09T00:38:17;8.73;;;5.03;;
16512;SDS011;8369;48.030;11.598;2023-07-09T00:43:31;6.95;;;4.47;;
16512;SDS011;8369;48.030;11.598;2023-07-09T00:49:49;7.45;;;5.25;;
16512;SDS011;8369;48.030;11.598;2023-07-09T00:51:54;6.68;;;4.85;;
16512;SDS011;8369;48.030;11.598;2023-07-09T00:54:36;10.07;;;6.30;;
16512;SDS011;8369;48.030;11.598;2023-07-09T00:57:14;6.75;;;4.75;;
16512;SDS011;8369;48.030;11.598;2023-07-09T00:59:47;7.40;;;5.38;;
16512;SDS011;8369;48.030;11.598;2023-07-09T01:02:18;7.00;;;4.95;;
16512;SDS011;8369;48.030;11.598;2023-07-09T01:04:50;7.38;;;5.57;;
16512;SDS011;8369;48.030;11.598;2023-07-09T01:07:19;7.55;;;5.55;;
16512;SDS011;8369;48.030;11.598;2023-07-09T01:09:44;8.27;;;5.80;;
16512;SDS011;8369;48.030;11.598;2023-07-09T01:12:11;6.20;;;5.60;;
16512;SDS011;8369;48.030;11.598;2023-07-09T01:14:39;7.88;;;5.20;;
16512;SDS011;8369;48.030;11.598;2023-07-09T01:17:05;5.78;;;4.75;;
16512;SDS011;8369;48.030;11.598;2023-07-09T01:19:41;7.40;;;4.82;;
16512;SDS011;8369;48.030;11.598;2023-07-09T01:22:09;7.68;;;5.07;;
16512;SDS011;8369;48.030;11.598;2023-07-09T01:27:40;7.93;;;5.07;;
16512;SDS011;8369;48.030;11.598;2023-07-09T01:30:12;6.55;;;4.63;;
16512;SDS011;8369;48.030;11.598;2023-07-09T01:32:51;6.45;;;4.70;;
16512;SDS011;8369;48.030;11.598;2023-07-09T01:35:22;6.93;;;5.20;;
16512;SDS011;8369;48.030;11.598;2023-07-09T01:37:48;8.43;;;4.60;;
16512;SDS011;8369;48.030;11.598;2023-07-09T01:40:16;6.93;;;4.80;;
16512;SDS011;8369;48.030;11.598;2023-07-09T01:42:44;7.30;;;5.25;;
16512;SDS011;8369;48.030;11.598;2023-07-09T01:45:10;7.72;;;5.85;;
16512;SDS011;8369;48.030;11.598;2023-07-09T01:47:37;7.03;;;5.75;;
16512;SDS011;8369;48.030;11.598;2023-07-09T01:50:04;8.27;;;5.93;;
16512;SDS011;8369;48.030;11.598;2023-07-09T01:52:35;11.05;;;6.28;;
16512;SDS011;8369;48.030;11.598;2023-07-09T01:55:03;10.45;;;6.53;;
16512;SDS011;8369;48.030;11.598;2023-07-09T01:57:30;8.70;;;6.47;;
16512;SDS011;8369;48.030;11.598;2023-07-09T02:00:03;11.95;;;6.63;;
16512;SDS011;8369;48.030;11.598;2023-07-09T02:02:34;7.95;;;5.50;;
16512;SDS011;8369;48.030;11.598;2023-07-09T02:05:01;8.02;;;5.90;;
16512;SDS011;8369;48.030;11.598;2023-07-09T02:07:27;6.47;;;5.28;;
16512;SDS011;8369;48.030;11.598;2023-07-09T02:09:54;8.07;;;5.63;;
16512;SDS011;8369;48.030;11.598;2023-07-09T02:12:21;6.53;;;4.93;;
16512;SDS011;8369;48.030;11.598;2023-07-09T02:14:47;7.55;;;5.50;;
16512;SDS011;8369;48.030;11.598;2023-07-09T02:17:14;9.98;;;5.38;;
16512;SDS011;8369;48.030;11.598;2023-07-09T02:19:41;6.28;;;5.03;;
16512;SDS011;8369;48.030;11.598;2023-07-09T02:22:08;8.00;;;5.30;;
16512;SDS011;8369;48.030;11.598;2023-07-09T02:24:35;8.13;;;4.88;;
16512;SDS011;8369;48.030;11.598;2023-07-09T02:27:03;6.40;;;4.57;;
16512;SDS011;8369;48.030;11.598;2023-07-09T02:29:32;6.78;;;4.85;;
16512;SDS011;8369;48.030;11.598;2023-07-09T02:31:59;7.88;;;5.00;;
16512;SDS011;8369;48.030;11.598;2023-07-09T02:34:27;6.47;;;4.85;;
16512;SDS011;8369;48.030;11.598;2023-07-09T02:36:55;5.95;;;4.93;;
16512;SDS011;8369;48.030;11.598;2023-07-09T02:39:22;9.23;;;5.30;;
16512;SDS011;8369;48.030;11.598;2023-07-09T02:41:49;7.57;;;4.97;;
16512;SDS011;8369;48.030;11.598;2023-07-09T02:44:16;7.63;;;5.30;;
16512;SDS011;8369;48.030;11.598;2023-07-09T02:46:43;11.13;;;5.03;;
16512;SDS011;8369;48.030;11.598;2023-07-09T02:49:11;5.75;;;4.38;;
16512;SDS011;8369;48.030;11.598;2023-07-09T02:51:38;8.32;;;4.55;;
16512;SDS011;8369;48.030;11.598;2023-07-09T02:54:05;7.18;;;4.60;;
16512;SDS011;8369;48.030;11.598;2023-07-09T02:56:31;8.80;;;5.13;;
16512;SDS011;8369;48.030;11.598;2023-07-09T02:58:58;7.20;;;4.90;;
16512;SDS011;8369;48.030;11.598;2023-07-09T03:01:24;7.80;;;5.13;;
16512;SDS011;8369;48.030;11.598;2023-07-09T03:03:52;7.10;;;4.70;;
16512;SDS011;8369;48.030;11.598;2023-07-09T03:06:20;6.68;;;5.05;;
16512;SDS011;8369;48.030;11.598;2023-07-09T03:08:47;9.27;;;5.25;;
16512;SDS011;8369;48.030;11.598;2023-07-09T03:11:14;7.53;;;5.13;;
16512;SDS011;8369;48.030;11.598;2023-07-09T03:13:42;10.38;;;5.78;;
16512;SDS011;8369;48.030;11.598;2023-07-09T03:16:08;8.88;;;5.22;;
16512;SDS011;8369;48.030;11.598;2023-07-09T03:18:35;9.15;;;5.88;;
16512;SDS011;8369;48.030;11.598;2023-07-09T03:21:01;8.20;;;5.35;;
16512;SDS011;8369;48.030;11.598;2023-07-09T03:23:28;9.88;;;5.22;;
16512;SDS011;8369;48.030;11.598;2023-07-09T03:25:54;8.73;;;5.70;;
16512;SDS011;8369;48.030;11.598;2023-07-09T03:28:20;8.57;;;4.85;;
16512;SDS011;8369;48.030;11.598;2023-07-09T03:30:48;8.25;;;5.05;;
16512;SDS011;8369;48.030;11.598;2023-07-09T03:33:15;8.25;;;5.28;;
16512;SDS011;8369;48.030;11.598;2023-07-09T03:35:42;7.75;;;4.97;;
16512;SDS011;8369;48.030;11.598;2023-07-09T03:38:09;9.82;;;5.03;;
16512;SDS011;8369;48.030;11.598;2023-07-09T03:40:36;8.43;;;4.93;;
16512;SDS011;8369;48.030;11.598;2023-07-09T03:43:06;9.02;;;5.60;;
16512;SDS011;8369;48.030;11.598;2023-07-09T03:45:34;10.20;;;5.38;;
16512;SDS011;8369;48.030;11.598;2023-07-09T03:48:01;8.40;;;5.22;;
16512;SDS011;8369;48.030;11.598;2023-07-09T03:50:28;8.30;;;4.60;;
16512;SDS011;8369;48.030;11.598;2023-07-09T03:52:54;8.93;;;5.03;;
16512;SDS011;8369;48.030;11.598;2023-07-09T03:55:21;7.28;;;4.68;;
16512;SDS011;8369;48.030;11.598;2023-07-09T03:57:47;7.80;;;4.63;;
16512;SDS011;8369;48.030;11.598;2023-07-09T04:00:13;8.02;;;4.93;;
16512;SDS011;8369;48.030;11.598;2023-07-09T04:02:40;7.82;;;4.78;;
16512;SDS011;8369;48.030;11.598;2023-07-09T04:05:09;7.78;;;5.03;;
16512;SDS011;8369;48.030;11.598;2023-07-09T04:07:36;5.97;;;4.53;;
16512;SDS011;8369;48.030;11.598;2023-07-09T04:10:04;6.40;;;4.88;;
16512;SDS011;8369;48.030;11.598;2023-07-09T04:12:31;8.07;;;4.35;;
16512;SDS011;8369;48.030;11.598;2023-07-09T04:14:58;7.28;;;4.82;;
16512;SDS011;8369;48.030;11.598;2023-07-09T04:17:24;9.02;;;4.82;;
16512;SDS011;8369;48.030;11.598;2023-07-09T04:19:50;6.45;;;4.60;;
16512;SDS011;8369;48.030;11.598;2023-07-09T04:22:17;8.90;;;5.13;;
16512;SDS011;8369;48.030;11.598;2023-07-09T04:24:43;8.38;;;4.28;;
16512;SDS011;8369;48.030;11.598;2023-07-09T04:27:09;5.32;;;4.15;;
16512;SDS011;8369;48.030;11.598;2023-07-09T04:29:35;8.88;;;4.85;;
16512;SDS011;8369;48.030;11.598;2023-07-09T04:32:04;8.68;;;4.20;;
16512;SDS011;8369;48.030;11.598;2023-07-09T04:34:36;7.32;;;4.53;;
16512;SDS011;8369;48.030;11.598;2023-07-09T04:37:04;9.60;;;4.90;;
16512;SDS011;8369;48.030;11.598;2023-07-09T04:39:34;5.20;;;4.40;;
16512;SDS011;8369;48.030;11.598;2023-07-09T04:42:01;7.03;;;4.88;;
16512;SDS011;8369;48.030;11.598;2023-07-09T04:44:27;6.53;;;4.72;;
16512;SDS011;8369;48.030;11.598;2023-07-09T04:46:54;7.28;;;4.22;;
16512;SDS011;8369;48.030;11.598;2023-07-09T04:49:21;7.20;;;4.50;;
16512;SDS011;8369;48.030;11.598;2023-07-09T04:51:47;6.97;;;4.57;;
16512;SDS011;8369;48.030;11.598;2023-07-09T04:54:13;7.15;;;4.32;;
16512;SDS011;8369;48.030;11.598;2023-07-09T04:56:40;6.80;;;4.60;;
16512;SDS011;8369;48.030;11.598;2023-07-09T04:59:10;6.63;;;4.60;;
16512;SDS011;8369;48.030;11.598;2023-07-09T05:01:37;5.40;;;4.32;;
16512;SDS011;8369;48.030;11.598;2023-07-09T05:04:03;6.65;;;4.55;;
16512;SDS011;8369;48.030;11.598;2023-07-09T05:06:29;6.38;;;4.15;;
16512;SDS011;8369;48.030;11.598;2023-07-09T05:08:58;5.25;;;4.18;;
16512;SDS011;8369;48.030;11.598;2023-07-09T05:11:24;6.55;;;4.00;;
16512;SDS011;8369;48.030;11.598;2023-07-09T05:13:50;7.75;;;4.43;;
16512;SDS011;8369;48.030;11.598;2023-07-09T05:16:17;7.03;;;4.07;;
16512;SDS011;8369;48.030;11.598;2023-07-09T05:18:44;5.40;;;3.85;;
16512;SDS011;8369;48.030;11.598;2023-07-09T05:21:11;7.47;;;4.47;;
16512;SDS011;8369;48.030;11.598;2023-07-09T05:23:41;4.38;;;3.97;;
16512;SDS011;8369;48.030;11.598;2023-07-09T05:26:11;5.88;;;3.67;;
16512;SDS011;8369;48.030;11.598;2023-07-09T05:28:37;6.43;;;3.60;;
16512;SDS011;8369;48.030;11.598;2023-07-09T05:31:06;8.05;;;3.60;;
16512;SDS011;8369;48.030;11.598;2023-07-09T05:33:33;7.38;;;4.00;;
16512;SDS011;8369;48.030;11.598;2023-07-09T05:35:59;6.80;;;3.50;;
16512;SDS011;8369;48.030;11.598;2023-07-09T05:38:28;8.43;;;3.90;;
16512;SDS011;8369;48.030;11.598;2023-07-09T05:41:01;5.43;;;3.58;;
16512;SDS011;8369;48.030;11.598;2023-07-09T05:43:28;4.38;;;3.42;;
16512;SDS011;8369;48.030;11.598;2023-07-09T05:45:54;4.75;;;3.90;;
16512;SDS011;8369;48.030;11.598;2023-07-09T05:48:20;6.78;;;3.75;;
16512;SDS011;8369;48.030;11.598;2023-07-09T05:50:47;6.95;;;4.20;;
16512;SDS011;8369;48.030;11.598;2023-07-09T05:53:14;5.95;;;3.58;;
16512;SDS011;8369;48.030;11.598;2023-07-09T05:55:40;4.05;;;3.30;;
16512;SDS011;8369;48.030;11.598;2023-07-09T05:58:06;7.10;;;4.07;;
16512;SDS011;8369;48.030;11.598;2023-07-09T06:00:32;4.82;;;3.83;;
16512;SDS011;8369;48.030;11.598;2023-07-09T06:02:58;5.35;;;3.50;;
16512;SDS011;8369;48.030;11.598;2023-07-09T06:05:23;5.05;;;3.50;;
16512;SDS011;8369;48.030;11.598;2023-07-09T06:07:49;4.85;;;3.60;;
16512;SDS011;8369;48.030;11.598;2023-07-09T06:10:15;4.85;;;3.60;;
16512;SDS011;8369;48.030;11.598;2023-07-09T06:12:44;6.50;;;3.28;;
16512;SDS011;8369;48.030;11.598;2023-07-09T06:15:10;4.70;;;3.38;;
16512;SDS011;8369;48.030;11.598;2023-07-09T06:17:36;6.30;;;3.55;;
16512;SDS011;8369;48.030;11.598;2023-07-09T06:20:02;6.18;;;3.33;;
16512;SDS011;8369;48.030;11.598;2023-07-09T06:22:28;6.45;;;3.25;;
16512;SDS011;8369;48.030;11.598;2023-07-09T06:24:54;4.88;;;3.60;;
16512;SDS011;8369;48.030;11.598;2023-07-09T06:27:19;6.95;;;3.45;;
16512;SDS011;8369;48.030;11.598;2023-07-09T06:29:45;3.92;;;3.17;;
16512;SDS011;8369;48.030;11.598;2023-07-09T06:32:11;8.10;;;3.50;;
16512;SDS011;8369;48.030;11.598;2023-07-09T06:34:36;3.97;;;3.42;;
16512;SDS011;8369;48.030;11.598;2023-07-09T06:37:02;4.72;;;3.38;;
16512;SDS011;8369;48.030;11.598;2023-07-09T06:39:30;4.32;;;3.60;;
16512;SDS011;8369;48.030;11.598;2023-07-09T06:41:56;6.15;;;3.25;;
16512;SDS011;8369;48.030;11.598;2023-07-09T06:44:21;3.58;;;3.03;;
16512;SDS011;8369;48.030;11.598;2023-07-09T06:46:47;3.85;;;3.20;;
16512;SDS011;8369;48.030;11.598;2023-07-09T06:49:13;4.65;;;3.55;;
16512;SDS011;8369;48.030;11.598;2023-07-09T06:51:39;5.88;;;3.67;;
16512;SDS011;8369;48.030;11.598;2023-07-09T06:54:04;5.65;;;3.60;;
16512;SDS011;8369;48.030;11.598;2023-07-09T06:56:31;6.70;;;3.55;;
16512;SDS011;8369;48.030;11.598;2023-07-09T06:58:57;4.82;;;3.70;;
16512;SDS011;8369;48.030;11.598;2023-07-09T07:01:22;4.53;;;3.10;;
16512;SDS011;8369;48.030;11.598;2023-07-09T07:03:48;5.90;;;3.78;;
16512;SDS011;8369;48.030;11.598;2023-07-09T07:06:14;4.90;;;3.38;;
16512;SDS011;8369;48.030;11.598;2023-07-09T07:08:41;3.53;;;2.88;;
16512;SDS011;8369;48.030;11.598;2023-07-09T07:11:07;4.72;;;3.33;;
16512;SDS011;8369;48.030;11.598;2023-07-09T07:13:36;5.28;;;3.45;;
16512;SDS011;8369;48.030;11.598;2023-07-09T07:16:12;6.15;;;3.17;;
16512;SDS011;8369;48.030;11.598;2023-07-09T07:18:38;7.10;;;3.47;;
16512;SDS011;8369;48.030;11.598;2023-07-09T07:21:04;3.80;;;3.03;;
16512;SDS011;8369;48.030;11.598;2023-07-09T07:23:31;6.68;;;3.60;;
16512;SDS011;8369;48.030;11.598;2023-07-09T07:25:56;7.68;;;3.38;;
16512;SDS011;8369;48.030;11.598;2023-07-09T07:28:22;5.07;;;3.08;;
16512;SDS011;8369;48.030;11.598;2023-07-09T07:31:01;5.38;;;3.40;;
16512;SDS011;8369;48.030;11.598;2023-07-09T07:33:29;3.70;;;3.05;;
16512;SDS011;8369;48.030;11.598;2023-07-09T07:35:55;5.53;;;3.40;;
16512;SDS011;8369;48.030;11.598;2023-07-09T07:38:22;6.00;;;3.33;;
16512;SDS011;8369;48.030;11.598;2023-07-09T07:40:49;4.15;;;3.10;;
16512;SDS011;8369;48.030;11.598;2023-07-09T07:43:15;5.30;;;3.40;;
16512;SDS011;8369;48.030;11.598;2023-07-09T07:45:41;5.43;;;3.28;;
16512;SDS011;8369;48.030;11.598;2023-07-09T07:48:07;4.60;;;3.30;;
16512;SDS011;8369;48.030;11.598;2023-07-09T07:50:33;3.88;;;3.10;;
16512;SDS011;8369;48.030;11.598;2023-07-09T07:52:59;4.97;;;3.33;;
16512;SDS011;8369;48.030;11.598;2023-07-09T07:55:24;7.40;;;3.25;;
16512;SDS011;8369;48.030;11.598;2023-07-09T07:57:50;4.50;;;3.33;;
16512;SDS011;8369;48.030;11.598;2023-07-09T08:00:16;5.50;;;3.78;;
16512;SDS011;8369;48.030;11.598;2023-07-09T08:02:42;4.75;;;3.40;;
16512;SDS011;8369;48.030;11.598;2023-07-09T08:05:08;5.05;;;3.25;;
16512;SDS011;8369;48.030;11.598;2023-07-09T08:07:34;6.75;;;3.58;;
16512;SDS011;8369;48.030;11.598;2023-07-09T08:09:59;6.22;;;4.05;;
16512;SDS011;8369;48.030;11.598;2023-07-09T08:12:25;5.22;;;3.95;;
16512;SDS011;8369;48.030;11.598;2023-07-09T08:14:51;3.67;;;3.30;;
16512;SDS011;8369;48.030;11.598;2023-07-09T08:17:16;7.90;;;3.63;;
16512;SDS011;8369;48.030;11.598;2023-07-09T08:19:49;6.15;;;3.90;;
16512;SDS011;8369;48.030;11.598;2023-07-09T08:22:18;4.85;;;3.80;;
16512;SDS011;8369;48.030;11.598;2023-07-09T08:24:46;4.50;;;3.67;;
16512;SDS011;8369;48.030;11.598;2023-07-09T08:27:11;4.78;;;3.50;;
16512;SDS011;8369;48.030;11.598;2023-07-09T08:29:37;6.43;;;3.88;;
16512;SDS011;8369;48.030;11.598;2023-07-09T08:32:05;4.35;;;3.60;;
16512;SDS011;8369;48.030;11.598;2023-07-09T08:34:31;6.93;;;3.85;;
16512;SDS011;8369;48.030;11.598;2023-07-09T08:36:57;5.45;;;3.58;;
16512;SDS011;8369;48.030;11.598;2023-07-09T08:39:23;5.35;;;3.35;;
16512;SDS011;8369;48.030;11.598;2023-07-09T08:41:51;5.07;;;3.90;;
16512;SDS011;8369;48.030;11.598;2023-07-09T08:47:04;6.95;;;3.72;;
16512;SDS011;8369;48.030;11.598;2023-07-09T08:49:41;6.78;;;4.00;;
16512;SDS011;8369;48.030;11.598;2023-07-09T08:52:26;4.55;;;3.22;;
16512;SDS011;8369;48.030;11.598;2023-07-09T08:55:04;6.70;;;3.67;;
16512;SDS011;8369;48.030;11.598;2023-07-09T09:00:32;8.25;;;3.70;;
16512;SDS011;8369;48.030;11.598;2023-07-09T09:04:09;5.95;;;3.95;;
16512;SDS011;8369;48.030;11.598;2023-07-09T09:06:20;5.20;;;3.42;;
16512;SDS011;8369;48.030;11.598;2023-07-09T09:11:59;4.60;;;3.40;;
16512;SDS011;8369;48.030;11.598;2023-07-09T09:14:58;6.15;;;3.97;;
16512;SDS011;8369;48.030;11.598;2023-07-09T09:17:29;5.72;;;3.60;;
16512;SDS011;8369;48.030;11.598;2023-07-09T09:20:03;11.57;;;3.60;;
16512;SDS011;8369;48.030;11.598;2023-07-09T09:22:40;5.03;;;3.60;;
16512;SDS011;8369;48.030;11.598;2023-07-09T09:27:41;5.50;;;3.65;;
16512;SDS011;8369;48.030;11.598;2023-07-09T09:30:18;5.15;;;3.83;;
16512;SDS011;8369;48.030;11.598;2023-07-09T09:32:48;5.28;;;3.65;;
16512;SDS011;8369;48.030;11.598;2023-07-09T09:35:25;4.05;;;3.40;;
16512;SDS011;8369;48.030;11.598;2023-07-09T09:37:54;4.60;;;3.85;;
16512;SDS011;8369;48.030;11.598;2023-07-09T09:40:21;3.75;;;3.05;;
16512;SDS011;8369;48.030;11.598;2023-07-09T09:42:49;3.92;;;3.50;;
16512;SDS011;8369;48.030;11.598;2023-07-09T09:45:16;5.38;;;3.70;;
16512;SDS011;8369;48.030;11.598;2023-07-09T09:47:44;5.82;;;3.80;;
16512;SDS011;8369;48.030;11.598;2023-07-09T09:50:17;5.40;;;3.65;;
16512;SDS011;8369;48.030;11.598;2023-07-09T09:52:45;7.78;;;3.70;;
16512;SDS011;8369;48.030;11.598;2023-07-09T09:55:17;3.95;;;3.53;;
16512;SDS011;8369;48.030;11.598;2023-07-09T09:58:11;8.05;;;3.83;;
16512;SDS011;8369;48.030;11.598;2023-07-09T10:00:38;5.80;;;4.07;;
16512;SDS011;8369;48.030;11.598;2023-07-09T10:03:04;7.38;;;4.13;;
16512;SDS011;8369;48.030;11.598;2023-07-09T10:05:34;6.38;;;3.75;;
16512;SDS011;8369;48.030;11.598;2023-07-09T10:08:20;6.22;;;3.90;;
16512;SDS011;8369;48.030;11.598;2023-07-09T10:11:10;5.13;;;3.72;;
16512;SDS011;8369;48.030;11.598;2023-07-09T10:13:42;6.55;;;3.85;;
16512;SDS011;8369;48.030;11.598;2023-07-09T10:16:27;12.80;;;4.07;;
16512;SDS011;8369;48.030;11.598;2023-07-09T10:19:09;5.20;;;3.45;;
16512;SDS011;8369;48.030;11.598;2023-07-09T10:21:45;4.18;;;3.65;;
16512;SDS011;8369;48.030;11.598;2023-07-09T10:26:51;5.55;;;4.53;;
16512;SDS011;8369;48.030;11.598;2023-07-09T10:35:15;7.63;;;4.18;;
16512;SDS011;8369;48.030;11.598;2023-07-09T10:37:53;5.10;;;3.63;;
16512;SDS011;8369;48.030;11.598;2023-07-09T10:40:40;5.05;;;3.97;;
16512;SDS011;8369;48.030;11.598;2023-07-09T10:43:41;5.70;;;3.58;;
16512;SDS011;8369;48.030;11.598;2023-07-09T10:46:19;4.60;;;3.70;;
16512;SDS011;8369;48.030;11.598;2023-07-09T10:48:50;11.05;;;5.10;;
16512;SDS011;8369;48.030;11.598;2023-07-09T10:53:59;9.02;;;3.65;;
16512;SDS011;8369;48.030;11.598;2023-07-09T10:56:52;4.10;;;3.63;;
16512;SDS011;8369;48.030;11.598;2023-07-09T10:59:25;7.22;;;3.80;;
16512;SDS011;8369;48.030;11.598;2023-07-09T11:01:54;4.47;;;3.97;;
16512;SDS011;8369;48.030;11.598;2023-07-09T11:04:31;6.15;;;3.80;;
16512;SDS011;8369;48.030;11.598;2023-07-09T11:07:04;9.00;;;3.85;;
16512;SDS011;8369;48.030;11.598;2023-07-09T11:16:19;6.38;;;3.92;;
16512;SDS011;8369;48.030;11.598;2023-07-09T11:18:55;4.20;;;3.80;;
16512;SDS011;8369;48.030;11.598;2023-07-09T11:21:40;4.40;;;3.90;;
16512;SDS011;8369;48.030;11.598;2023-07-09T11:27:49;5.88;;;3.92;;
16512;SDS011;8369;48.030;11.598;2023-07-09T11:30:49;6.55;;;3.60;;
16512;SDS011;8369;48.030;11.598;2023-07-09T11:33:25;9.30;;;3.80;;
16512;SDS011;8369;48.030;11.598;2023-07-09T11:36:11;6.82;;;3.63;;
16512;SDS011;8369;48.030;11.598;2023-07-09T11:38:44;5.50;;;3.67;;
16512;SDS011;8369;48.030;11.598;2023-07-09T11:41:28;5.68;;;3.70;;
16512;SDS011;8369;48.030;11.598;2023-07-09T11:52:56;6.85;;;3.38;;
16512;SDS011;8369;48.030;11.598;2023-07-09T11:55:31;4.55;;;3.80;;
16512;SDS011;8369;48.030;11.598;2023-07-09T11:58:00;6.45;;;3.83;;
16512;SDS011;8369;48.030;11.598;2023-07-09T12:00:28;5.95;;;3.65;;
16512;SDS011;8369;48.030;11.598;2023-07-09T12:03:34;5.90;;;3.75;;
16512;SDS011;8369;48.030;11.598;2023-07-09T12:08:34;5.20;;;3.60;;
16512;SDS011;8369;48.030;11.598;2023-07-09T12:11:01;5.97;;;3.85;;
16512;SDS011;8369;48.030;11.598;2023-07-09T12:13:27;5.55;;;3.45;;
16512;SDS011;8369;48.030;11.598;2023-07-09T12:15:53;6.10;;;3.80;;
16512;SDS011;8369;48.030;11.598;2023-07-09T12:18:19;5.10;;;3.80;;
16512;SDS011;8369;48.030;11.598;2023-07-09T12:20:47;5.35;;;3.83;;
16512;SDS011;8369;48.030;11.598;2023-07-09T12:25:54;4.40;;;3.85;;
16512;SDS011;8369;48.030;11.598;2023-07-09T12:28:21;7.28;;;4.00;;
16512;SDS011;8369;48.030;11.598;2023-07-09T12:30:48;3.63;;;3.33;;
16512;SDS011;8369;48.030;11.598;2023-07-09T12:33:20;12.65;;;4.00;;
16512;SDS011;8369;48.030;11.598;2023-07-09T12:36:00;4.75;;;3.90;;
16512;SDS011;8369;48.030;11.598;2023-07-09T12:39:04;4.30;;;3.63;;
16512;SDS011;8369;48.030;11.598;2023-07-09T12:41:40;7.55;;;3.95;;
16512;SDS011;8369;48.030;11.598;2023-07-09T12:44:20;5.85;;;3.63;;
16512;SDS011;8369;48.030;11.598;2023-07-09T12:46:48;7.82;;;3.97;;
16512;SDS011;8369;48.030;11.598;2023-07-09T12:52:28;6.72;;;3.33;;
16512;SDS011;8369;48.030;11.598;2023-07-09T12:55:19;6.03;;;3.65;;
16512;SDS011;8369;48.030;11.598;2023-07-09T12:57:51;5.28;;;4.05;;
16512;SDS011;8369;48.030;11.598;2023-07-09T13:00:20;4.32;;;3.40;;
16512;SDS011;8369;48.030;11.598;2023-07-09T13:02:50;5.13;;;3.90;;
16512;SDS011;8369;48.030;11.598;2023-07-09T13:05:20;10.32;;;3.88;;
16512;SDS011;8369;48.030;11.598;2023-07-09T13:07:52;4.72;;;4.22;;
16512;SDS011;8369;48.030;11.598;2023-07-09T13:12:53;15.15;;;12.02;;
16512;SDS011;8369;48.030;11.598;2023-07-09T13:15:38;5.90;;;4.45;;
16512;SDS011;8369;48.030;11.598;2023-07-09T13:18:06;6.00;;;4.07;;
16512;SDS011;8369;48.030;11.598;2023-07-09T13:20:37;9.05;;;6.30;;
16512;SDS011;8369;48.030;11.598;2023-07-09T13:23:12;7.15;;;4.10;;
16512;SDS011;8369;48.030;11.598;2023-07-09T13:25:41;5.28;;;3.80;;
16512;SDS011;8369;48.030;11.598;2023-07-09T13:28:23;4.97;;;3.95;;
16512;SDS011;8369;48.030;11.598;2023-07-09T13:31:13;6.57;;;4.53;;
16512;SDS011;8369;48.030;11.598;2023-07-09T13:33:43;7.90;;;4.07;;
16512;SDS011;8369;48.030;11.598;2023-07-09T13:36:14;4.65;;;3.85;;
16512;SDS011;8369;48.030;11.598;2023-07-09T13:38:40;5.15;;;3.70;;
16512;SDS011;8369;48.030;11.598;2023-07-09T13:41:11;4.88;;;3.67;;
16512;SDS011;8369;48.030;11.598;2023-07-09T13:43:41;6.50;;;3.67;;
16512;SDS011;8369;48.030;11.598;2023-07-09T13:46:09;4.93;;;4.03;;
16512;SDS011;8369;48.030;11.598;2023-07-09T13:48:39;4.70;;;3.42;;
16512;SDS011;8369;48.030;11.598;2023-07-09T13:51:11;5.32;;;4.10;;
16512;SDS011;8369;48.030;11.598;2023-07-09T13:53:41;4.20;;;3.55;;
16512;SDS011;8369;48.030;11.598;2023-07-09T13:56:07;6.07;;;3.85;;
16512;SDS011;8369;48.030;11.598;2023-07-09T13:58:33;6.40;;;4.18;;
16512;SDS011;8369;48.030;11.598;2023-07-09T14:00:59;6.63;;;3.78;;
16512;SDS011;8369;48.030;11.598;2023-07-09T14:03:37;5.93;;;4.03;;
16512;SDS011;8369;48.030;11.598;2023-07-09T14:06:08;5.05;;;3.67;;
16512;SDS011;8369;48.030;11.598;2023-07-09T14:08:39;5.78;;;3.80;;
16512;SDS011;8369;48.030;11.598;2023-07-09T14:11:11;4.32;;;3.88;;
16512;SDS011;8369;48.030;11.598;2023-07-09T14:13:41;4.53;;;4.07;;
16512;SDS011;8369;48.030;11.598;2023-07-09T14:16:10;9.07;;;3.80;;
16512;SDS011;8369;48.030;11.598;2023-07-09T14:18:42;5.90;;;3.70;;
16512;SDS011;8369;48.030;11.598;2023-07-09T14:21:16;5.95;;;3.65;;
16512;SDS011;8369;48.030;11.598;2023-07-09T14:23:45;5.45;;;3.80;;
16512;SDS011;8369;48.030;11.598;2023-07-09T14:26:14;5.18;;;4.22;;
16512;SDS011;8369;48.030;11.598;2023-07-09T14:28:39;5.75;;;3.75;;
16512;SDS011;8369;48.030;11.598;2023-07-09T14:31:27;4.95;;;3.88;;
16512;SDS011;8369;48.030;11.598;2023-07-09T14:33:58;4.03;;;3.60;;
16512;SDS011;8369;48.030;11.598;2023-07-09T14:36:39;5.45;;;3.67;;
16512;SDS011;8369;48.030;11.598;2023-07-09T14:39:08;6.07;;;3.70;;
16512;SDS011;8369;48.030;11.598;2023-07-09T14:41:37;6.63;;;3.90;;
16512;SDS011;8369;48.030;11.598;2023-07-09T14:44:15;7.15;;;4.28;;
16512;SDS011;8369;48.030;11.598;2023-07-09T14:46:51;4.90;;;3.60;;
16512;SDS011;8369;48.030;11.598;2023-07-09T14:49:18;4.03;;;3.53;;
16512;SDS011;8369;48.030;11.598;2023-07-09T14:51:46;4.53;;;3.88;;
16512;SDS011;8369;48.030;11.598;2023-07-09T14:54:26;6.05;;;3.47;;
16512;SDS011;8369;48.030;11.598;2023-07-09T14:57:01;5.32;;;3.67;;
16512;SDS011;8369;48.030;11.598;2023-07-09T15:00:12;5.13;;;3.58;;
16512;SDS011;8369;48.030;11.598;2023-07-09T15:02:43;3.75;;;3.45;;
16512;SDS011;8369;48.030;11.598;2023-07-09T15:05:17;5.15;;;3.78;;
16512;SDS011;8369;48.030;11.598;2023-07-09T15:07:45;5.75;;;3.58;;
16512;SDS011;8369;48.030;11.598;2023-07-09T15:10:22;5.97;;;3.55;;
16512;SDS011;8369;48.030;11.598;2023-07-09T15:12:52;5.40;;;3.70;;
16512;SDS011;8369;48.030;11.598;2023-07-09T15:15:31;5.07;;;3.50;;
16512;SDS011;8369;48.030;11.598;2023-07-09T15:17:58;6.05;;;3.50;;
16512;SDS011;8369;48.030;11.598;2023-07-09T15:20:29;5.18;;;3.85;;
16512;SDS011;8369;48.030;11.598;2023-07-09T15:23:07;6.93;;;4.15;;
16512;SDS011;8369;48.030;11.598;2023-07-09T15:25:50;5.05;;;3.60;;
16512;SDS011;8369;48.030;11.598;2023-07-09T15:31:17;6.85;;;3.65;;
16512;SDS011;8369;48.030;11.598;2023-07-09T15:33:49;4.47;;;3.90;;
16512;SDS011;8369;48.030;11.598;2023-07-09T15:36:25;7.00;;;3.53;;
16512;SDS011;8369;48.030;11.598;2023-07-09T15:38:51;5.35;;;3.90;;
16512;SDS011;8369;48.030;11.598;2023-07-09T15:41:16;5.88;;;3.42;;
16512;SDS011;8369;48.030;11.598;2023-07-09T15:43:43;6.18;;;3.47;;
16512;SDS011;8369;48.030;11.598;2023-07-09T15:46:09;3.97;;;3.30;;
16512;SDS011;8369;48.030;11.598;2023-07-09T15:48:44;6.15;;;3.47;;
16512;SDS011;8369;48.030;11.598;2023-07-09T15:51:14;5.85;;;3.65;;
16512;SDS011;8369;48.030;11.598;2023-07-09T15:53:40;5.18;;;3.72;;
16512;SDS011;8369;48.030;11.598;2023-07-09T15:56:17;5.60;;;3.92;;
16512;SDS011;8369;48.030;11.598;2023-07-09T15:58:50;6.80;;;3.55;;
16512;SDS011;8369;48.030;11.598;2023-07-09T16:01:24;4.90;;;3.80;;
16512;SDS011;8369;48.030;11.598;2023-07-09T16:04:01;6.50;;;3.88;;
16512;SDS011;8369;48.030;11.598;2023-07-09T16:06:42;4.75;;;3.83;;
16512;SDS011;8369;48.030;11.598;2023-07-09T16:09:08;4.80;;;3.83;;
16512;SDS011;8369;48.030;11.598;2023-07-09T16:11:34;5.53;;;3.97;;